Time;durP1;ratioP1;P1;durP2;ratioP2;P2;SDS_P1;SDS_P2;PMS_P1;PMS_P2;Temp;Humidity;BMP_temperature;BMP_pressure;BME280_temperature;BME280_humidity;BME280_pressure;Samples;Min_cycle;Max_cycle;Signal;HPM_P1;HPM_P2
2023/06/20 00:00:49;;;;;;;11.50;10.23;;;22.00;99.90;;;;;;5032405;28;20194;-69
2023/06/20 00:03:16;;;;;;;10.50;9.60;;;21.90;99.90;;;;;;5040392;28;20435;-69
2023/06/20 00:05:42;;;;;;;9.80;8.90;;;21.90;99.90;;;;;;5045919;28;20181;-69
2023/06/20 00:08:08;;;;;;;10.37;9.67;;;21.90;99.90;;;;;;5054976;28;20464;-69
2023/06/20 00:10:33;;;;;;;9.67;8.97;;;22.10;99.90;;;;;;5039877;28;20217;-69
2023/06/20 00:13:02;;;;;;;9.97;8.60;;;22.10;99.90;;;;;;5034941;28;20433;-69
2023/06/20 00:15:28;;;;;;;10.37;9.47;;;22.20;99.90;;;;;;5024935;28;20632;-69
2023/06/20 00:17:55;;;;;;;10.90;10.00;;;22.20;99.90;;;;;;5030004;28;20840;-70
2023/06/20 00:20:20;;;;;;;8.50;7.90;;;22.30;99.90;;;;;;5034213;28;20449;-69
2023/06/20 00:22:46;;;;;;;8.87;8.27;;;22.20;99.90;;;;;;5034890;28;20428;-69
2023/06/20 00:25:11;;;;;;;9.50;8.67;;;22.40;99.90;;;;;;5034745;28;20249;-69
2023/06/20 00:27:38;;;;;;;9.63;8.77;;;22.30;99.90;;;;;;5033849;28;20266;-69
2023/06/20 00:30:04;;;;;;;9.50;8.80;;;22.30;99.90;;;;;;5033513;28;20206;-69
2023/06/20 00:32:29;;;;;;;10.07;9.27;;;22.30;99.90;;;;;;5032751;28;20453;-69
2023/06/20 00:34:58;;;;;;;9.70;8.97;;;22.10;99.90;;;;;;5034510;28;20451;-69
2023/06/20 00:37:25;;;;;;;9.73;9.03;;;21.90;99.90;;;;;;5034616;28;20284;-69
2023/06/20 00:39:50;;;;;;;10.77;9.50;;;21.50;99.90;;;;;;5031774;28;20464;-73
2023/06/20 00:42:17;;;;;;;11.73;10.73;;;21.20;99.90;;;;;;5033462;28;20439;-73
2023/06/20 00:44:42;;;;;;;11.70;10.80;;;20.80;99.90;;;;;;5031686;28;20261;-74
2023/06/20 00:47:08;;;;;;;13.10;11.90;;;20.70;99.90;;;;;;5032612;28;20527;-74
2023/06/20 00:49:34;;;;;;;13.60;12.27;;;20.10;99.90;;;;;;5030679;28;20207;-74
2023/06/20 00:52:02;;;;;;;13.60;12.47;;;19.90;99.90;;;;;;5040664;28;20439;-75
2023/06/20 00:54:29;;;;;;;13.63;12.33;;;19.80;99.90;;;;;;5033389;28;20719;-75
2023/06/20 00:56:55;;;;;;;18.43;12.80;;;19.70;99.90;;;;;;5044595;28;20510;-75
2023/06/20 00:59:20;;;;;;;13.10;12.10;;;19.60;99.90;;;;;;5039122;28;20492;-74
2023/06/20 01:01:46;;;;;;;13.00;11.73;;;19.40;99.90;;;;;;5031615;28;20643;-74
2023/06/20 01:04:12;;;;;;;14.03;12.70;;;19.40;99.90;;;;;;5034548;28;20185;-74
2023/06/20 01:06:48;;;;;;;13.63;12.40;;;19.30;99.90;;;;;;5040923;28;20165;-75
2023/06/20 01:09:49;;;;;;;14.13;13.03;;;19.20;99.90;;;;;;5053559;28;20943;-75
2023/06/20 01:12:42;;;;;;;14.00;12.90;;;19.20;99.90;;;;;;5022335;28;20525;-74
2023/06/20 01:15:19;;;;;;;17.47;13.20;;;19.10;99.90;;;;;;5033883;28;20421;-74
2023/06/20 01:17:51;;;;;;;13.60;12.40;;;19.00;99.90;;;;;;5027728;28;20500;-75
2023/06/20 01:20:26;;;;;;;15.13;11.23;;;19.00;99.90;;;;;;5028810;28;20492;-74
2023/06/20 01:23:01;;;;;;;13.50;12.20;;;18.90;99.90;;;;;;5033944;28;20412;-74
2023/06/20 01:25:46;;;;;;;12.83;11.63;;;18.90;99.90;;;;;;5032550;28;20420;-73
2023/06/20 01:28:28;;;;;;;12.40;11.20;;;19.00;99.90;;;;;;5033625;28;20413;-74
2023/06/20 01:31:01;;;;;;;13.37;12.27;;;18.80;99.90;;;;;;5025479;28;20457;-74
2023/06/20 01:33:51;;;;;;;10.73;9.93;;;18.80;99.90;;;;;;5033192;28;20436;-73
2023/06/20 01:36:19;;;;;;;12.07;10.93;;;18.80;99.90;;;;;;5033339;28;20956;-74
2023/06/20 01:38:47;;;;;;;12.97;11.67;;;18.80;99.90;;;;;;5033028;28;20897;-74
2023/06/20 01:41:16;;;;;;;9.97;9.07;;;18.80;99.90;;;;;;5033301;28;20456;-74
2023/06/20 01:43:44;;;;;;;10.73;9.70;;;18.70;99.90;;;;;;5032260;28;20467;-74
2023/06/20 01:46:10;;;;;;;10.77;9.90;;;18.70;99.90;;;;;;5032323;28;20429;-75
2023/06/20 01:48:39;;;;;;;11.43;10.43;;;18.70;99.90;;;;;;5033008;28;20770;-75
2023/06/20 01:51:04;;;;;;;11.00;9.97;;;18.70;99.90;;;;;;5032652;28;21166;-74
2023/06/20 01:53:32;;;;;;;11.60;10.60;;;18.60;99.90;;;;;;5039142;28;20428;-75
2023/06/20 01:56:01;;;;;;;11.53;10.53;;;18.60;99.90;;;;;;5038603;28;20170;-74
2023/06/20 01:58:27;;;;;;;11.40;10.40;;;18.80;99.90;;;;;;5043218;28;20463;-75
2023/06/20 02:00:57;;;;;;;11.17;10.37;;;18.60;99.90;;;;;;5032572;28;20468;-75
2023/06/20 02:03:27;;;;;;;10.73;9.50;;;18.50;99.90;;;;;;5033443;28;20436;-75
2023/06/20 02:05:56;;;;;;;10.47;9.57;;;18.50;99.90;;;;;;5041070;28;20437;-75
2023/06/20 02:08:24;;;;;;;11.83;10.63;;;18.50;99.90;;;;;;5040709;28;20440;-75
2023/06/20 02:10:51;;;;;;;9.90;9.10;;;18.50;99.90;;;;;;5037591;28;20473;-75
2023/06/20 02:13:17;;;;;;;11.57;10.57;;;18.50;99.90;;;;;;5047063;28;20503;-75
2023/06/20 02:15:44;;;;;;;11.00;10.00;;;18.50;99.90;;;;;;5050828;28;20420;-75
2023/06/20 02:18:09;;;;;;;10.50;9.63;;;18.60;99.90;;;;;;5021326;28;20961;-75
2023/06/20 02:20:35;;;;;;;9.33;8.43;;;18.60;99.90;;;;;;5031387;28;20472;-75
2023/06/20 02:23:03;;;;;;;11.03;10.13;;;18.60;99.90;;;;;;5032705;28;20183;-75
2023/06/20 02:25:33;;;;;;;11.83;10.73;;;18.60;99.90;;;;;;5032518;28;20662;-75
2023/06/20 02:27:59;;;;;;;9.97;9.13;;;18.60;99.90;;;;;;5032705;28;20470;-75
2023/06/20 02:30:28;;;;;;;11.13;10.03;;;18.50;99.90;;;;;;5030516;28;20842;-75
2023/06/20 02:32:56;;;;;;;10.43;9.33;;;18.50;99.90;;;;;;5030698;28;20192;-75
2023/06/20 02:35:23;;;;;;;10.63;9.73;;;18.50;99.90;;;;;;5032116;28;20425;-75
2023/06/20 02:37:52;;;;;;;10.50;9.67;;;18.50;99.90;;;;;;5032405;28;20460;-75
2023/06/20 02:40:22;;;;;;;10.60;9.73;;;18.50;99.90;;;;;;5032106;28;20447;-75
2023/06/20 02:42:48;;;;;;;9.43;8.73;;;18.50;99.90;;;;;;5027475;28;20796;-75
2023/06/20 02:45:13;;;;;;;9.67;8.80;;;18.60;99.90;;;;;;5028858;28;20440;-75
2023/06/20 02:48:16;;;;;;;10.67;9.77;;;18.50;99.90;;;;;;5025606;28;20189;-75
2023/06/20 02:50:59;;;;;;;9.83;8.93;;;18.60;99.90;;;;;;5012554;28;20194;-75
2023/06/20 02:53:42;;;;;;;10.33;9.43;;;18.60;99.90;;;;;;5012503;28;20413;-74
2023/06/20 02:56:12;;;;;;;9.63;8.83;;;18.50;99.90;;;;;;5026792;28;20430;-74
2023/06/20 02:58:40;;;;;;;10.53;9.70;;;18.50;99.90;;;;;;5031802;28;20464;-75
2023/06/20 03:01:07;;;;;;;10.07;9.23;;;18.50;99.90;;;;;;5030396;28;20452;-75
2023/06/20 03:03:36;;;;;;;11.43;10.43;;;18.50;99.90;;;;;;5031682;28;21111;-75
2023/06/20 03:06:02;;;;;;;10.27;9.13;;;18.60;99.90;;;;;;5032170;28;20475;-75
2023/06/20 03:08:29;;;;;;;9.53;8.73;;;18.70;99.90;;;;;;5031688;28;20431;-75
2023/06/20 03:10:56;;;;;;;9.97;9.20;;;18.80;99.90;;;;;;5030318;28;20532;-75
2023/06/20 03:13:22;;;;;;;8.97;8.17;;;18.70;99.90;;;;;;5041593;28;20445;-75
2023/06/20 03:15:51;;;;;;;8.87;7.97;;;18.70;99.90;;;;;;5032939;28;20851;-75
2023/06/20 03:18:17;;;;;;;9.03;8.23;;;18.60;99.90;;;;;;5031539;28;20220;-75
2023/06/20 03:20:48;;;;;;;8.83;8.13;;;18.70;99.90;;;;;;5031724;28;20449;-75
2023/06/20 03:23:14;;;;;;;8.93;8.20;;;18.80;99.90;;;;;;5030832;28;20774;-75
2023/06/20 03:25:40;;;;;;;9.00;8.10;;;18.80;99.90;;;;;;5034092;28;20424;-75
2023/06/20 03:28:06;;;;;;;9.00;8.30;;;18.80;99.90;;;;;;5034993;28;20483;-75
2023/06/20 03:30:31;;;;;;;9.10;8.23;;;18.80;99.90;;;;;;5030494;28;20464;-75
2023/06/20 03:32:57;;;;;;;8.60;7.83;;;18.80;99.90;;;;;;5035793;28;20216;-75
2023/06/20 03:35:22;;;;;;;8.70;8.10;;;18.80;99.90;;;;;;5025571;28;20236;-75
2023/06/20 03:37:48;;;;;;;9.63;8.80;;;18.80;99.90;;;;;;5020719;28;20218;-75
2023/06/20 03:40:13;;;;;;;8.87;8.27;;;18.80;99.90;;;;;;5014658;28;20260;-75
2023/06/20 03:42:39;;;;;;;10.50;9.30;;;18.80;99.90;;;;;;5015900;28;20167;-74
2023/06/20 03:45:05;;;;;;;9.50;8.60;;;18.80;99.90;;;;;;5019171;28;20667;-75
2023/06/20 03:47:30;;;;;;;9.97;8.40;;;18.70;99.90;;;;;;5033614;28;20191;-75
2023/06/20 03:49:56;;;;;;;9.37;8.43;;;18.70;99.90;;;;;;5035236;28;20445;-75
2023/06/20 03:52:21;;;;;;;9.17;8.47;;;18.70;99.90;;;;;;5035213;28;20542;-75
2023/06/20 03:54:47;;;;;;;9.87;8.67;;;18.70;99.90;;;;;;5035532;28;20178;-75
2023/06/20 03:57:12;;;;;;;9.43;8.63;;;18.60;99.90;;;;;;5025346;28;20230;-75
2023/06/20 03:59:38;;;;;;;11.40;10.40;;;18.70;99.90;;;;;;5026020;28;20679;-75
2023/06/20 04:02:04;;;;;;;10.30;9.50;;;18.60;99.90;;;;;;5034363;28;20924;-75
2023/06/20 04:04:29;;;;;;;11.07;10.20;;;18.60;99.90;;;;;;5034081;28;20600;-75
2023/06/20 04:06:55;;;;;;;9.60;8.80;;;18.50;99.90;;;;;;5035212;28;20417;-75
2023/06/20 04:09:25;;;;;;;8.77;8.07;;;18.60;99.90;;;;;;5032460;28;20289;-75
2023/06/20 04:11:50;;;;;;;8.63;7.67;;;18.50;99.90;;;;;;5027029;28;20178;-75
2023/06/20 04:14:16;;;;;;;9.10;8.40;;;18.60;99.90;;;;;;5035321;28;20417;-75
2023/06/20 04:16:42;;;;;;;11.00;10.10;;;18.60;99.90;;;;;;5035145;28;20265;-75
2023/06/20 04:19:07;;;;;;;11.47;8.10;;;18.70;99.90;;;;;;5030825;28;20212;-76
2023/06/20 04:21:33;;;;;;;9.57;8.87;;;18.70;99.90;;;;;;5031353;28;20596;-75
2023/06/20 04:23:58;;;;;;;10.37;9.40;;;18.80;99.90;;;;;;5033070;28;20182;-76
2023/06/20 04:26:24;;;;;;;8.80;8.10;;;18.90;99.90;;;;;;5034037;28;20265;-75
2023/06/20 04:28:50;;;;;;;9.13;8.37;;;19.00;99.90;;;;;;5041939;28;20189;-76
2023/06/20 04:31:15;;;;;;;9.93;9.03;;;19.10;99.90;;;;;;5037904;28;20702;-76
2023/06/20 04:33:43;;;;;;;9.10;8.40;;;19.30;99.90;;;;;;5032455;28;20186;-75
2023/06/20 04:36:13;;;;;;;8.50;7.63;;;19.50;99.90;;;;;;5043927;28;20263;-75
2023/06/20 04:38:39;;;;;;;7.60;6.90;;;19.60;99.90;;;;;;5035791;28;20479;-75
2023/06/20 04:41:04;;;;;;;9.17;8.47;;;19.80;99.90;;;;;;5032963;28;20457;-75
2023/06/20 04:43:30;;;;;;;7.90;7.30;;;19.90;99.90;;;;;;5034399;28;20914;-75
2023/06/20 04:45:56;;;;;;;8.90;8.00;;;20.00;99.90;;;;;;5033371;28;20177;-75
2023/06/20 04:48:27;;;;;;;8.63;7.87;;;20.20;99.90;;;;;;5033233;28;20257;-75
2023/06/20 04:50:55;;;;;;;9.00;8.20;;;20.20;99.90;;;;;;5034496;28;20780;-75
2023/06/20 04:53:20;;;;;;;8.37;7.67;;;20.20;99.90;;;;;;5033146;28;20425;-75
2023/06/20 04:55:46;;;;;;;8.23;7.57;;;20.10;99.90;;;;;;5028109;28;20452;-76
2023/06/20 04:58:12;;;;;;;6.83;6.17;;;20.10;99.90;;;;;;5031585;28;20646;-76
2023/06/20 05:00:37;;;;;;;7.80;6.17;;;20.10;99.90;;;;;;5031823;28;21182;-75
2023/06/20 05:03:04;;;;;;;8.63;6.90;;;20.10;99.90;;;;;;5032380;28;20185;-75
2023/06/20 05:05:29;;;;;;;8.40;7.50;;;20.10;99.90;;;;;;5032356;28;20179;-75
2023/06/20 05:07:56;;;;;;;7.30;6.70;;;20.10;99.90;;;;;;5034351;28;20452;-75
2023/06/20 05:10:22;;;;;;;8.10;7.27;;;20.20;99.90;;;;;;5034099;28;20245;-75
2023/06/20 05:12:48;;;;;;;7.77;7.03;;;20.50;99.90;;;;;;5034076;28;20480;-74
2023/06/20 05:15:13;;;;;;;6.87;6.37;;;20.60;99.90;;;;;;5029646;28;20440;-75
2023/06/20 05:17:39;;;;;;;6.23;5.73;;;20.90;99.90;;;;;;5032767;28;20221;-75
2023/06/20 05:20:05;;;;;;;5.50;5.00;;;21.20;99.90;;;;;;5033595;28;20190;-75
2023/06/20 05:22:32;;;;;;;6.50;6.00;;;21.20;99.90;;;;;;5033870;28;20174;-75
2023/06/20 05:24:57;;;;;;;5.70;5.20;;;21.20;99.90;;;;;;5033658;28;20956;-75
2023/06/20 05:27:24;;;;;;;6.00;5.50;;;21.20;99.90;;;;;;5033756;28;20424;-75
2023/06/20 05:29:49;;;;;;;6.27;5.67;;;21.30;99.90;;;;;;5031018;28;20204;-75
2023/06/20 05:32:15;;;;;;;6.70;6.03;;;21.40;99.90;;;;;;5029029;28;20851;-75
2023/06/20 05:34:40;;;;;;;8.37;6.30;;;21.60;99.90;;;;;;5033093;28;20186;-75
2023/06/20 05:37:06;;;;;;;7.40;6.00;;;21.60;99.90;;;;;;5033500;28;20198;-75
2023/06/20 05:39:31;;;;;;;6.50;5.83;;;21.90;99.90;;;;;;5033065;28;20201;-75
2023/06/20 05:41:57;;;;;;;6.20;5.60;;;21.70;99.90;;;;;;5033375;28;20173;-75
2023/06/20 05:44:22;;;;;;;6.93;6.40;;;21.70;99.90;;;;;;5030524;28;20175;-75
2023/06/20 05:46:48;;;;;;;6.27;5.70;;;21.70;99.90;;;;;;5033001;28;20182;-75
2023/06/20 05:49:15;;;;;;;5.90;4.93;;;21.80;99.90;;;;;;5033025;28;20194;-75
2023/06/20 05:51:44;;;;;;;6.73;6.13;;;21.80;99.90;;;;;;5033109;28;20678;-75
2023/06/20 05:54:10;;;;;;;7.30;5.87;;;21.90;99.90;;;;;;5033087;28;20449;-75
2023/06/20 05:56:35;;;;;;;7.57;7.07;;;22.10;99.90;;;;;;5033384;28;20444;-75
2023/06/20 05:59:01;;;;;;;6.87;6.37;;;22.10;99.90;;;;;;5032804;28;20413;-75
2023/06/20 06:01:27;;;;;;;7.37;6.67;;;22.20;99.90;;;;;;5026292;28;20175;-75
2023/06/20 06:03:52;;;;;;;8.60;6.33;;;22.30;99.90;;;;;;5024627;28;20182;-75
2023/06/20 06:06:18;;;;;;;8.93;6.17;;;22.50;99.90;;;;;;5026814;28;20520;-75
2023/06/20 06:08:43;;;;;;;8.60;7.20;;;22.70;99.90;;;;;;5029094;28;20264;-70
2023/06/20 06:11:09;;;;;;;6.60;5.90;;;22.70;99.90;;;;;;5030120;28;20732;-70
2023/06/20 06:13:34;;;;;;;6.47;5.87;;;22.60;99.90;;;;;;5027592;28;20709;-70
2023/06/20 06:16:00;;;;;;;10.53;7.10;;;22.60;99.90;;;;;;5030397;28;20190;-74
2023/06/20 06:18:25;;;;;;;6.40;5.90;;;22.60;99.90;;;;;;5029783;28;20197;-73
2023/06/20 06:20:51;;;;;;;7.77;6.30;;;22.70;99.90;;;;;;5028921;28;20209;-73
2023/06/20 06:23:16;;;;;;;7.77;7.07;;;22.70;99.90;;;;;;5029875;28;20189;-75
2023/06/20 06:25:44;;;;;;;7.87;6.60;;;22.90;99.90;;;;;;5028306;28;20252;-73
2023/06/20 06:28:10;;;;;;;6.60;6.00;;;23.10;99.90;;;;;;5038074;28;20179;-75
2023/06/20 06:30:36;;;;;;;7.97;6.90;;;23.00;99.90;;;;;;5025049;28;20480;-75
2023/06/20 06:33:02;;;;;;;6.70;6.20;;;23.10;99.90;;;;;;5028027;28;20627;-74
2023/06/20 06:35:30;;;;;;;6.87;6.27;;;23.40;99.90;;;;;;5024876;28;20441;-75
2023/06/20 06:37:57;;;;;;;7.23;5.30;;;23.70;99.90;;;;;;5028860;28;21042;-75
2023/06/20 06:40:23;;;;;;;8.30;6.43;;;23.70;99.90;;;;;;5027342;28;20519;-74
2023/06/20 06:42:48;;;;;;;6.67;6.13;;;23.90;99.90;;;;;;5033990;28;20841;-75
2023/06/20 06:45:14;;;;;;;6.33;5.83;;;23.90;99.90;;;;;;5032967;28;20174;-75
2023/06/20 06:47:40;;;;;;;6.90;6.20;;;24.00;99.90;;;;;;5032218;28;20284;-75
2023/06/20 06:50:06;;;;;;;6.33;5.80;;;24.10;99.90;;;;;;5031126;28;20248;-74
2023/06/20 06:52:34;;;;;;;6.90;6.30;;;24.20;99.90;;;;;;5023576;28;20236;-74
2023/06/20 06:55:00;;;;;;;7.23;6.63;;;24.30;99.90;;;;;;5027346;28;20514;-75
2023/06/20 06:57:25;;;;;;;7.87;7.03;;;24.30;99.90;;;;;;5029354;28;20472;-75
2023/06/20 06:59:51;;;;;;;10.40;7.20;;;24.50;99.90;;;;;;5026141;28;20202;-75
2023/06/20 07:02:16;;;;;;;6.67;6.17;;;24.70;99.90;;;;;;5029786;28;20546;-75
2023/06/20 07:04:42;;;;;;;7.40;6.70;;;24.90;99.90;;;;;;5029531;28;20185;-75
2023/06/20 07:07:07;;;;;;;6.37;5.77;;;25.00;99.90;;;;;;5028558;28;20184;-75
2023/06/20 07:09:33;;;;;;;6.60;6.10;;;25.00;99.90;;;;;;5036213;28;20275;-75
2023/06/20 07:11:58;;;;;;;6.70;6.20;;;25.00;99.90;;;;;;5032319;28;20246;-75
2023/06/20 07:14:26;;;;;;;7.13;6.60;;;25.20;99.90;;;;;;5040191;28;20193;-75
2023/06/20 07:16:52;;;;;;;8.80;8.00;;;25.40;99.90;;;;;;5032537;28;20227;-75
2023/06/20 07:19:18;;;;;;;6.50;6.00;;;25.40;99.90;;;;;;5032223;28;20456;-75
2023/06/20 07:21:43;;;;;;;7.63;6.20;;;25.40;99.90;;;;;;5027096;28;20445;-74
2023/06/20 07:24:09;;;;;;;6.43;5.83;;;25.40;99.90;;;;;;5030928;28;20586;-74
2023/06/20 07:26:34;;;;;;;6.50;6.00;;;25.60;99.90;;;;;;5031139;28;20173;-75
2023/06/20 07:29:00;;;;;;;7.10;6.50;;;26.00;99.90;;;;;;5025301;28;20197;-75
2023/06/20 07:31:25;;;;;;;7.57;6.80;;;25.80;99.90;;;;;;5029914;28;20185;-74
2023/06/20 07:33:51;;;;;;;8.87;7.23;;;25.80;99.90;;;;;;5026737;28;20191;-74
2023/06/20 07:36:16;;;;;;;10.30;6.10;;;25.80;99.90;;;;;;5029356;28;20190;-75
2023/06/20 07:38:42;;;;;;;7.53;6.70;;;25.90;99.90;;;;;;5036981;28;22045;-74
2023/06/20 07:41:07;;;;;;;6.60;6.00;;;26.10;99.90;;;;;;5038179;28;20611;-75
2023/06/20 07:43:33;;;;;;;11.67;8.30;;;26.20;99.90;;;;;;5038358;28;20269;-74
2023/06/20 07:45:58;;;;;;;10.57;7.20;;;26.40;99.90;;;;;;5028498;28;20181;-75
2023/06/20 07:48:26;;;;;;;8.27;7.03;;;26.40;99.90;;;;;;5024668;28;20186;-76
2023/06/20 07:50:51;;;;;;;8.87;7.63;;;26.30;99.90;;;;;;5028680;28;20800;-74
2023/06/20 07:53:18;;;;;;;7.83;7.27;;;26.10;99.90;;;;;;5039330;28;20432;-74
2023/06/20 07:55:43;;;;;;;8.93;8.13;;;26.00;99.90;;;;;;5041645;28;20268;-75
2023/06/20 07:58:09;;;;;;;7.50;6.80;;;26.00;99.90;;;;;;5037291;28;20539;-75
2023/06/20 08:00:34;;;;;;;8.40;7.70;;;26.30;99.90;;;;;;5027497;28;20672;-75
2023/06/20 08:03:00;;;;;;;9.17;8.37;;;26.50;99.90;;;;;;5029505;28;20251;-75
2023/06/20 08:05:25;;;;;;;8.37;7.57;;;26.70;99.90;;;;;;5033099;28;20292;-76
2023/06/20 08:07:51;;;;;;;9.90;7.13;;;27.20;99.90;;;;;;5040988;28;20188;-75
2023/06/20 08:10:17;;;;;;;7.90;7.10;;;27.20;99.90;;;;;;5029207;28;20267;-76
2023/06/20 08:12:42;;;;;;;8.53;7.73;;;27.00;99.90;;;;;;5040837;28;20297;-76
2023/06/20 08:15:08;;;;;;;9.23;7.30;;;27.00;99.90;;;;;;5039888;28;20186;-76
2023/06/20 08:17:33;;;;;;;8.30;7.50;;;27.20;99.90;;;;;;5030133;28;20687;-75
2023/06/20 08:19:59;;;;;;;8.57;7.77;;;27.40;99.90;;;;;;5040474;28;20550;-76
2023/06/20 08:22:26;;;;;;;10.70;7.80;;;27.60;99.90;;;;;;5041338;28;20228;-75
2023/06/20 08:24:51;;;;;;;8.00;7.23;;;27.60;99.90;;;;;;5040801;28;20637;-74
2023/06/20 08:27:17;;;;;;;8.30;7.60;;;27.50;99.90;;;;;;5034691;28;20482;-76
2023/06/20 08:29:42;;;;;;;8.43;6.93;;;27.50;99.90;;;;;;5028786;28;20240;-75
2023/06/20 08:32:08;;;;;;;9.63;8.67;;;27.80;99.90;;;;;;5031362;28;20197;-75
2023/06/20 08:34:34;;;;;;;9.80;8.80;;;27.70;99.90;;;;;;5033087;28;20181;-76
2023/06/20 08:36:59;;;;;;;8.73;8.03;;;27.70;99.90;;;;;;5032276;28;20198;-76
2023/06/20 08:39:25;;;;;;;8.10;7.50;;;27.70;99.90;;;;;;5032078;28;20634;-75
2023/06/20 08:41:50;;;;;;;8.63;7.90;;;27.70;99.90;;;;;;5032724;28;20550;-75
2023/06/20 08:44:16;;;;;;;8.73;7.80;;;27.80;99.90;;;;;;5042495;28;20201;-76
2023/06/20 08:46:42;;;;;;;7.90;7.30;;;28.00;99.90;;;;;;5030721;28;20193;-76
2023/06/20 08:49:08;;;;;;;8.50;7.70;;;28.40;99.90;;;;;;5034856;28;20184;-76
2023/06/20 08:51:39;;;;;;;8.93;8.00;;;28.60;99.90;;;;;;5035955;28;20174;-77
2023/06/20 08:54:08;;;;;;;8.23;7.43;;;28.80;99.90;;;;;;5045323;28;20444;-75
2023/06/20 08:56:34;;;;;;;12.97;9.33;;;29.20;99.90;;;;;;5040265;28;20483;-76
2023/06/20 08:58:59;;;;;;;9.07;7.60;;;29.20;99.90;;;;;;5040564;28;20468;-76
2023/06/20 09:01:25;;;;;;;8.67;7.87;;;29.50;99.90;;;;;;5034187;28;20654;-76
2023/06/20 09:03:52;;;;;;;8.07;7.30;;;29.50;99.90;;;;;;5031461;28;20178;-76
2023/06/20 09:06:38;;;;;;;7.50;6.80;;;29.30;99.90;;;;;;5029401;28;20432;-76
2023/06/20 09:09:17;;;;;;;8.43;7.23;;;29.40;99.90;;;;;;5030386;28;20439;-75
2023/06/20 09:11:52;;;;;;;8.13;7.43;;;29.80;99.90;;;;;;5025600;28;20432;-76
2023/06/20 09:14:18;;;;;;;11.33;7.60;;;30.00;99.90;;;;;;5039514;28;20505;-75
2023/06/20 09:16:47;;;;;;;7.57;6.97;;;30.50;99.50;;;;;;5031120;28;20464;-75
2023/06/20 09:19:12;;;;;;;7.60;6.90;;;30.40;98.10;;;;;;5028664;28;20506;-76
2023/06/20 09:21:39;;;;;;;8.23;7.50;;;30.40;98.30;;;;;;5032803;28;20437;-75
2023/06/20 09:24:06;;;;;;;8.33;7.73;;;30.40;97.80;;;;;;5033624;28;20195;-76
2023/06/20 09:26:32;;;;;;;8.53;7.83;;;30.50;96.50;;;;;;5038023;28;20428;-76
2023/06/20 09:29:12;;;;;;;8.83;8.07;;;30.90;95.50;;;;;;5040641;28;20446;-76
2023/06/20 09:31:49;;;;;;;7.83;7.10;;;30.70;94.50;;;;;;5036401;28;20435;-76
2023/06/20 09:34:21;;;;;;;8.10;7.47;;;30.40;94.80;;;;;;5030622;28;20550;-76
2023/06/20 09:36:47;;;;;;;8.13;7.23;;;30.70;94.50;;;;;;5033418;28;20839;-76
2023/06/20 09:39:20;;;;;;;9.70;7.27;;;30.90;94.00;;;;;;5033096;28;20440;-75
2023/06/20 09:41:49;;;;;;;8.63;7.77;;;31.10;92.50;;;;;;5033418;28;20249;-75
2023/06/20 09:44:15;;;;;;;8.37;7.67;;;31.50;92.80;;;;;;5033407;28;20421;-76
2023/06/20 09:46:41;;;;;;;8.53;7.83;;;31.50;91.20;;;;;;5033138;28;20424;-75
2023/06/20 09:49:07;;;;;;;8.53;7.70;;;31.50;90.40;;;;;;5032991;28;20906;-75
2023/06/20 09:51:34;;;;;;;8.70;8.00;;;31.50;90.60;;;;;;5028251;28;20729;-73
2023/06/20 09:54:11;;;;;;;8.90;8.20;;;32.20;88.90;;;;;;5033133;28;20417;-75
2023/06/20 09:56:45;;;;;;;8.00;7.23;;;32.20;84.10;;;;;;5033272;28;20432;-75
2023/06/20 09:59:13;;;;;;;7.90;7.20;;;32.10;82.80;;;;;;5032613;28;20458;-76
2023/06/20 10:01:40;;;;;;;8.00;7.30;;;32.30;83.10;;;;;;5031937;28;20433;-70
2023/06/20 10:04:07;;;;;;;7.90;7.20;;;33.10;80.50;;;;;;5029957;28;20480;-69
2023/06/20 10:06:37;;;;;;;7.50;6.87;;;33.30;77.80;;;;;;5028055;28;20432;-68
2023/06/20 10:09:07;;;;;;;7.23;6.73;;;33.80;75.20;;;;;;5028461;28;20432;-69
2023/06/20 10:11:36;;;;;;;7.37;6.70;;;33.60;71.70;;;;;;5013053;28;20429;-69
2023/06/20 10:14:03;;;;;;;8.23;7.63;;;33.80;70.20;;;;;;5013252;28;20513;-69
2023/06/20 10:16:29;;;;;;;7.60;6.90;;;34.30;69.40;;;;;;5025166;28;20449;-73
2023/06/20 10:18:55;;;;;;;8.53;7.83;;;34.60;68.60;;;;;;5027135;28;20480;-66
2023/06/20 10:21:59;;;;;;;7.83;7.13;;;34.80;65.20;;;;;;5030520;28;20445;-66
2023/06/20 10:24:27;;;;;;;7.90;7.30;;;34.30;64.70;;;;;;5039487;28;20185;-67
2023/06/20 10:27:01;;;;;;;10.10;7.10;;;34.00;65.20;;;;;;5039104;28;20440;-68
2023/06/20 10:29:28;;;;;;;8.60;7.80;;;34.30;65.70;;;;;;5027646;28;20826;-68
2023/06/20 10:31:54;;;;;;;8.20;7.00;;;34.70;64.50;;;;;;5028756;28;20495;-68
2023/06/20 10:34:50;;;;;;;8.00;7.30;;;34.20;64.10;;;;;;5028466;28;20840;-68
2023/06/20 10:37:27;;;;;;;8.50;7.70;;;34.40;64.70;;;;;;5017064;28;20517;-69
2023/06/20 10:39:57;;;;;;;9.00;7.03;;;34.90;60.90;;;;;;5028651;28;20465;-68
2023/06/20 10:42:40;;;;;;;7.33;6.77;;;35.10;60.90;;;;;;5030108;28;20440;-68
2023/06/20 10:45:26;;;;;;;8.37;6.90;;;35.80;57.50;;;;;;5031382;28;20459;-69
2023/06/20 10:47:53;;;;;;;7.20;6.60;;;36.50;55.80;;;;;;5033713;28;20431;-68
2023/06/20 10:50:19;;;;;;;7.23;6.60;;;36.70;54.90;;;;;;5040070;28;20459;-68
2023/06/20 10:52:45;;;;;;;8.07;7.27;;;36.80;53.00;;;;;;5027373;28;20531;-68
2023/06/20 10:55:29;;;;;;;7.40;6.70;;;37.50;52.50;;;;;;5029068;28;20553;-68
2023/06/20 10:57:55;;;;;;;7.53;6.93;;;37.70;51.40;;;;;;5028208;28;20527;-68
2023/06/20 11:00:22;;;;;;;7.43;6.83;;;38.30;51.10;;;;;;5024910;28;20515;-71
2023/06/20 11:02:48;;;;;;;7.63;6.83;;;37.90;49.90;;;;;;5021011;28;20527;-70
2023/06/20 11:05:14;;;;;;;6.67;6.17;;;37.10;47.90;;;;;;5025933;28;20436;-69
2023/06/20 11:07:56;;;;;;;6.70;6.20;;;37.00;46.80;;;;;;5028593;28;20437;-72
2023/06/20 11:10:27;;;;;;;6.93;6.40;;;36.20;46.70;;;;;;5030236;28;20307;-71
2023/06/20 11:12:54;;;;;;;7.50;6.90;;;36.40;46.50;;;;;;5028553;28;20808;-68
2023/06/20 11:15:28;;;;;;;6.33;5.80;;;36.80;46.90;;;;;;5029996;28;20863;-68
2023/06/20 11:17:55;;;;;;;7.70;6.47;;;37.50;46.40;;;;;;5027714;28;20974;-68
2023/06/20 11:20:23;;;;;;;7.40;6.67;;;38.90;45.30;;;;;;5038112;28;20472;-68
2023/06/20 11:22:49;;;;;;;6.60;6.10;;;39.50;43.40;;;;;;5031969;28;20516;-68
2023/06/20 11:25:22;;;;;;;6.30;5.80;;;39.30;42.90;;;;;;5039168;28;20523;-68
2023/06/20 11:27:48;;;;;;;10.53;7.03;;;39.30;43.50;;;;;;5035805;28;20499;-68
2023/06/20 11:30:14;;;;;;;7.17;6.47;;;39.70;43.40;;;;;;5031724;28;20460;-68
2023/06/20 11:32:40;;;;;;;7.17;6.43;;;39.80;42.40;;;;;;5030841;28;20226;-68
2023/06/20 11:35:08;;;;;;;7.60;6.90;;;41.10;42.40;;;;;;5038400;28;20480;-69
2023/06/20 11:37:34;;;;;;;7.10;6.40;;;41.10;41.70;;;;;;5027997;28;20214;-69
2023/06/20 11:39:59;;;;;;;7.13;6.53;;;41.30;41.10;;;;;;5027402;28;20456;-68
2023/06/20 11:42:32;;;;;;;7.40;6.90;;;42.00;40.70;;;;;;5025959;28;20190;-69
2023/06/20 11:45:10;;;;;;;7.97;7.27;;;42.90;39.40;;;;;;5026410;28;20178;-69
2023/06/20 11:47:35;;;;;;;8.00;6.20;;;42.70;39.30;;;;;;5023415;28;20821;-69
2023/06/20 11:50:01;;;;;;;7.40;6.07;;;43.00;39.50;;;;;;5029695;28;20519;-69
2023/06/20 11:52:32;;;;;;;7.77;7.07;;;41.00;39.20;;;;;;5023580;28;20182;-68
2023/06/20 11:55:04;;;;;;;8.83;7.20;;;39.60;40.90;;;;;;5027293;28;20175;-68
2023/06/20 11:57:30;;;;;;;7.60;6.90;;;39.00;41.20;;;;;;5026002;28;20493;-69
2023/06/20 12:00:07;;;;;;;8.53;6.27;;;39.50;41.30;;;;;;5027613;28;20471;-68
2023/06/20 12:02:36;;;;;;;7.87;6.23;;;40.30;40.40;;;;;;5026942;28;20440;-68
2023/06/20 12:05:02;;;;;;;8.03;7.23;;;40.90;39.30;;;;;;5031506;28;20436;-69
2023/06/20 12:07:28;;;;;;;7.50;6.80;;;41.50;38.80;;;;;;5029174;28;20850;-69
2023/06/20 12:09:53;;;;;;;7.87;6.70;;;42.80;38.00;;;;;;5029938;28;20202;-69
2023/06/20 12:12:28;;;;;;;10.43;8.13;;;43.60;37.20;;;;;;5031725;28;20176;-69
2023/06/20 12:14:54;;;;;;;7.93;7.20;;;44.70;36.50;;;;;;5027092;28;20239;-69
2023/06/20 12:17:19;;;;;;;8.20;7.57;;;45.00;35.80;;;;;;5031623;28;20810;-68
2023/06/20 12:19:52;;;;;;;7.80;7.20;;;46.00;35.90;;;;;;5032839;28;20667;-69
2023/06/20 12:22:18;;;;;;;6.97;6.47;;;46.20;34.70;;;;;;5036779;28;20255;-69
2023/06/20 12:24:45;;;;;;;8.70;7.50;;;43.60;35.60;;;;;;5034593;28;20969;-68
2023/06/20 12:27:11;;;;;;;8.70;7.77;;;42.00;36.80;;;;;;5034598;28;20326;-68
2023/06/20 12:29:37;;;;;;;7.93;7.40;;;41.40;37.50;;;;;;5033941;28;20539;-68
2023/06/20 12:32:03;;;;;;;7.47;6.77;;;42.50;37.50;;;;;;5028688;28;20539;-69
2023/06/20 12:34:28;;;;;;;7.93;7.33;;;42.40;36.90;;;;;;5023876;28;20181;-69
2023/06/20 12:36:54;;;;;;;8.90;8.00;;;42.50;36.30;;;;;;5024509;28;20502;-68
2023/06/20 12:39:19;;;;;;;7.93;7.23;;;43.60;35.30;;;;;;5024820;28;20204;-69
2023/06/20 12:41:45;;;;;;;7.97;7.37;;;44.10;35.70;;;;;;5023427;28;20613;-69
2023/06/20 12:44:11;;;;;;;7.97;7.27;;;44.90;34.90;;;;;;5026533;28;20177;-69
2023/06/20 12:46:37;;;;;;;9.10;8.20;;;44.90;34.50;;;;;;5036690;28;20179;-69